sensor_id;sensor_type;location;lat;lon;timestamp;P1;durP1;ratioP1;P2;durP2;ratioP2
35074;SDS011;21260;34.984;32.490;2023-03-01T00:01:34;12.00;;;7.70;;
35074;SDS011;21260;34.984;32.490;2023-03-01T00:04:00;18.30;;;7.73;;
35074;SDS011;21260;34.984;32.490;2023-03-01T00:06:27;13.80;;;7.70;;
35074;SDS011;21260;34.984;32.490;2023-03-01T00:08:53;12.33;;;7.20;;
35074;SDS011;21260;34.984;32.490;2023-03-01T00:11:27;20.00;;;8.20;;
35074;SDS011;21260;34.984;32.490;2023-03-01T00:13:56;23.77;;;7.53;;
35074;SDS011;21260;34.984;32.490;2023-03-01T00:16:27;16.07;;;7.33;;
35074;SDS011;21260;34.984;32.490;2023-03-01T00:18:56;20.13;;;7.63;;
35074;SDS011;21260;34.984;32.490;2023-03-01T00:21:23;22.23;;;7.97;;
35074;SDS011;21260;34.984;32.490;2023-03-01T00:23:51;18.37;;;7.53;;
35074;SDS011;21260;34.984;32.490;2023-03-01T00:26:22;18.50;;;8.70;;
35074;SDS011;21260;34.984;32.490;2023-03-01T00:28:50;19.97;;;8.00;;
35074;SDS011;21260;34.984;32.490;2023-03-01T00:31:19;14.13;;;8.03;;
35074;SDS011;21260;34.984;32.490;2023-03-01T00:33:47;18.10;;;8.50;;
35074;SDS011;21260;34.984;32.490;2023-03-01T00:36:18;21.43;;;8.20;;
35074;SDS011;21260;34.984;32.490;2023-03-01T00:38:45;15.33;;;7.93;;
35074;SDS011;21260;34.984;32.490;2023-03-01T00:41:13;15.03;;;7.60;;
35074;SDS011;21260;34.984;32.490;2023-03-01T00:43:42;15.43;;;8.00;;
35074;SDS011;21260;34.984;32.490;2023-03-01T00:46:10;13.80;;;7.90;;
35074;SDS011;21260;34.984;32.490;2023-03-01T00:48:40;14.97;;;8.00;;
35074;SDS011;21260;34.984;32.490;2023-03-01T00:51:08;17.43;;;8.00;;
35074;SDS011;21260;34.984;32.490;2023-03-01T00:53:49;17.17;;;8.63;;
35074;SDS011;21260;34.984;32.490;2023-03-01T00:56:17;19.17;;;8.43;;
35074;SDS011;21260;34.984;32.490;2023-03-01T00:58:44;22.43;;;8.13;;
35074;SDS011;21260;34.984;32.490;2023-03-01T01:01:12;16.03;;;8.17;;
35074;SDS011;21260;34.984;32.490;2023-03-01T01:06:21;15.63;;;8.07;;
35074;SDS011;21260;34.984;32.490;2023-03-01T01:08:51;15.53;;;8.43;;
35074;SDS011;21260;34.984;32.490;2023-03-01T01:11:21;18.83;;;8.97;;
35074;SDS011;21260;34.984;32.490;2023-03-01T01:13:50;13.27;;;8.43;;
35074;SDS011;21260;34.984;32.490;2023-03-01T01:16:17;16.27;;;8.80;;
35074;SDS011;21260;34.984;32.490;2023-03-01T01:18:46;15.53;;;8.57;;
35074;SDS011;21260;34.984;32.490;2023-03-01T01:21:14;18.70;;;8.87;;
35074;SDS011;21260;34.984;32.490;2023-03-01T01:23:44;14.67;;;8.50;;
35074;SDS011;21260;34.984;32.490;2023-03-01T01:26:13;17.00;;;8.77;;
35074;SDS011;21260;34.984;32.490;2023-03-01T01:28:43;16.77;;;9.07;;
35074;SDS011;21260;34.984;32.490;2023-03-01T01:31:12;21.53;;;9.07;;
35074;SDS011;21260;34.984;32.490;2023-03-01T01:33:39;24.83;;;8.63;;
35074;SDS011;21260;34.984;32.490;2023-03-01T01:36:07;17.27;;;8.57;;
35074;SDS011;21260;34.984;32.490;2023-03-01T01:38:35;25.30;;;8.60;;
35074;SDS011;21260;34.984;32.490;2023-03-01T01:41:03;16.67;;;9.10;;
35074;SDS011;21260;34.984;32.490;2023-03-01T01:43:35;20.20;;;8.63;;
35074;SDS011;21260;34.984;32.490;2023-03-01T01:46:52;18.63;;;9.43;;
35074;SDS011;21260;34.984;32.490;2023-03-01T01:49:07;16.20;;;8.17;;
35074;SDS011;21260;34.984;32.490;2023-03-01T01:51:49;17.33;;;8.33;;
35074;SDS011;21260;34.984;32.490;2023-03-01T01:57:16;16.60;;;8.40;;
35074;SDS011;21260;34.984;32.490;2023-03-01T01:59:53;18.43;;;8.20;;
35074;SDS011;21260;34.984;32.490;2023-03-01T02:02:28;21.10;;;9.37;;
35074;SDS011;21260;34.984;32.490;2023-03-01T02:05:01;20.17;;;8.83;;
35074;SDS011;21260;34.984;32.490;2023-03-01T02:07:40;24.67;;;9.00;;
35074;SDS011;21260;34.984;32.490;2023-03-01T02:10:08;17.67;;;8.43;;
35074;SDS011;21260;34.984;32.490;2023-03-01T02:12:35;21.67;;;9.77;;
35074;SDS011;21260;34.984;32.490;2023-03-01T02:15:03;15.57;;;8.63;;
35074;SDS011;21260;34.984;32.490;2023-03-01T02:17:30;14.27;;;8.20;;
35074;SDS011;21260;34.984;32.490;2023-03-01T02:22:54;17.90;;;7.77;;
35074;SDS011;21260;34.984;32.490;2023-03-01T02:25:35;16.63;;;6.90;;
35074;SDS011;21260;34.984;32.490;2023-03-01T02:30:43;11.90;;;7.23;;
35074;SDS011;21260;34.984;32.490;2023-03-01T02:33:34;21.53;;;7.57;;
35074;SDS011;21260;34.984;32.490;2023-03-01T02:36:04;18.53;;;7.37;;
35074;SDS011;21260;34.984;32.490;2023-03-01T02:38:40;13.97;;;7.50;;
35074;SDS011;21260;34.984;32.490;2023-03-01T02:41:07;12.93;;;7.70;;
35074;SDS011;21260;34.984;32.490;2023-03-01T02:43:38;20.40;;;7.63;;
35074;SDS011;21260;34.984;32.490;2023-03-01T02:46:06;15.70;;;7.33;;
35074;SDS011;21260;34.984;32.490;2023-03-01T02:48:46;21.17;;;7.70;;
35074;SDS011;21260;34.984;32.490;2023-03-01T02:57:02;18.87;;;7.73;;
35074;SDS011;21260;34.984;32.490;2023-03-01T02:59:30;14.50;;;7.40;;
35074;SDS011;21260;34.984;32.490;2023-03-01T03:02:04;17.17;;;7.13;;
35074;SDS011;21260;34.984;32.490;2023-03-01T03:04:32;19.27;;;8.17;;
35074;SDS011;21260;34.984;32.490;2023-03-01T03:06:59;16.33;;;8.27;;
35074;SDS011;21260;34.984;32.490;2023-03-01T03:09:25;13.73;;;7.83;;
35074;SDS011;21260;34.984;32.490;2023-03-01T03:11:52;23.27;;;7.40;;
35074;SDS011;21260;34.984;32.490;2023-03-01T03:14:18;13.50;;;7.17;;
35074;SDS011;21260;34.984;32.490;2023-03-01T03:16:45;11.97;;;7.13;;
35074;SDS011;21260;34.984;32.490;2023-03-01T03:19:14;18.27;;;7.43;;
35074;SDS011;21260;34.984;32.490;2023-03-01T03:21:42;17.23;;;7.20;;
35074;SDS011;21260;34.984;32.490;2023-03-01T03:24:09;16.93;;;8.03;;
35074;SDS011;21260;34.984;32.490;2023-03-01T03:26:36;13.80;;;7.30;;
35074;SDS011;21260;34.984;32.490;2023-03-01T03:29:02;25.33;;;7.93;;
35074;SDS011;21260;34.984;32.490;2023-03-01T03:31:29;19.70;;;7.40;;
35074;SDS011;21260;34.984;32.490;2023-03-01T03:33:55;20.07;;;7.83;;
35074;SDS011;21260;34.984;32.490;2023-03-01T03:36:24;16.80;;;7.47;;
35074;SDS011;21260;34.984;32.490;2023-03-01T03:38:50;14.37;;;7.03;;
35074;SDS011;21260;34.984;32.490;2023-03-01T03:41:17;17.73;;;7.40;;
35074;SDS011;21260;34.984;32.490;2023-03-01T03:43:43;13.50;;;7.20;;
35074;SDS011;21260;34.984;32.490;2023-03-01T03:46:11;18.27;;;7.13;;
35074;SDS011;21260;34.984;32.490;2023-03-01T03:48:39;12.70;;;6.97;;
35074;SDS011;21260;34.984;32.490;2023-03-01T03:51:12;18.87;;;8.13;;
35074;SDS011;21260;34.984;32.490;2023-03-01T03:53:41;16.37;;;7.10;;
35074;SDS011;21260;34.984;32.490;2023-03-01T03:56:09;15.33;;;7.23;;
35074;SDS011;21260;34.984;32.490;2023-03-01T03:58:36;18.07;;;7.47;;
35074;SDS011;21260;34.984;32.490;2023-03-01T04:01:02;25.67;;;7.87;;
35074;SDS011;21260;34.984;32.490;2023-03-01T04:03:29;14.73;;;7.30;;
35074;SDS011;21260;34.984;32.490;2023-03-01T04:06:00;18.40;;;6.97;;
35074;SDS011;21260;34.984;32.490;2023-03-01T04:08:28;16.83;;;7.33;;
35074;SDS011;21260;34.984;32.490;2023-03-01T04:11:01;18.57;;;6.73;;
35074;SDS011;21260;34.984;32.490;2023-03-01T04:13:49;13.83;;;7.20;;
35074;SDS011;21260;34.984;32.490;2023-03-01T04:16:18;21.73;;;7.60;;
35074;SDS011;21260;34.984;32.490;2023-03-01T04:18:44;14.90;;;7.17;;
35074;SDS011;21260;34.984;32.490;2023-03-01T04:21:11;18.23;;;7.17;;
35074;SDS011;21260;34.984;32.490;2023-03-01T04:23:38;12.47;;;6.40;;
35074;SDS011;21260;34.984;32.490;2023-03-01T04:26:06;15.37;;;7.43;;
35074;SDS011;21260;34.984;32.490;2023-03-01T04:28:34;13.27;;;6.23;;
35074;SDS011;21260;34.984;32.490;2023-03-01T04:31:14;19.47;;;7.33;;
35074;SDS011;21260;34.984;32.490;2023-03-01T04:33:53;12.67;;;7.03;;
35074;SDS011;21260;34.984;32.490;2023-03-01T04:36:22;18.17;;;6.90;;
35074;SDS011;21260;34.984;32.490;2023-03-01T04:38:52;18.40;;;7.50;;
35074;SDS011;21260;34.984;32.490;2023-03-01T04:41:20;17.63;;;7.83;;
35074;SDS011;21260;34.984;32.490;2023-03-01T04:43:48;23.20;;;7.80;;
35074;SDS011;21260;34.984;32.490;2023-03-01T04:46:16;21.70;;;7.73;;
35074;SDS011;21260;34.984;32.490;2023-03-01T04:48:53;18.67;;;7.53;;
35074;SDS011;21260;34.984;32.490;2023-03-01T04:51:19;30.90;;;8.40;;
35074;SDS011;21260;34.984;32.490;2023-03-01T04:53:45;25.20;;;7.87;;
35074;SDS011;21260;34.984;32.490;2023-03-01T04:56:12;19.03;;;7.90;;
35074;SDS011;21260;34.984;32.490;2023-03-01T04:58:39;23.07;;;8.67;;
35074;SDS011;21260;34.984;32.490;2023-03-01T05:01:09;20.57;;;9.07;;
35074;SDS011;21260;34.984;32.490;2023-03-01T05:03:44;21.80;;;8.20;;
35074;SDS011;21260;34.984;32.490;2023-03-01T05:06:13;21.97;;;7.40;;
35074;SDS011;21260;34.984;32.490;2023-03-01T05:08:40;13.97;;;7.60;;
35074;SDS011;21260;34.984;32.490;2023-03-01T05:11:08;15.23;;;7.70;;
35074;SDS011;21260;34.984;32.490;2023-03-01T05:13:35;16.60;;;7.30;;
35074;SDS011;21260;34.984;32.490;2023-03-01T05:16:04;23.03;;;8.80;;
35074;SDS011;21260;34.984;32.490;2023-03-01T05:18:36;21.60;;;8.80;;
35074;SDS011;21260;34.984;32.490;2023-03-01T05:21:06;21.83;;;8.93;;
35074;SDS011;21260;34.984;32.490;2023-03-01T05:23:37;19.50;;;8.93;;
35074;SDS011;21260;34.984;32.490;2023-03-01T05:26:04;17.20;;;8.63;;
35074;SDS011;21260;34.984;32.490;2023-03-01T05:28:31;16.70;;;8.70;;
35074;SDS011;21260;34.984;32.490;2023-03-01T05:30:58;24.93;;;8.93;;
35074;SDS011;21260;34.984;32.490;2023-03-01T05:33:24;24.30;;;9.33;;
35074;SDS011;21260;34.984;32.490;2023-03-01T05:35:59;21.13;;;9.20;;
35074;SDS011;21260;34.984;32.490;2023-03-01T05:38:26;19.43;;;9.00;;
35074;SDS011;21260;34.984;32.490;2023-03-01T05:40:52;17.40;;;9.20;;
35074;SDS011;21260;34.984;32.490;2023-03-01T05:43:18;16.73;;;8.90;;
35074;SDS011;21260;34.984;32.490;2023-03-01T05:45:45;19.43;;;9.47;;
35074;SDS011;21260;34.984;32.490;2023-03-01T05:48:12;22.77;;;10.30;;
35074;SDS011;21260;34.984;32.490;2023-03-01T05:50:43;16.93;;;10.43;;
35074;SDS011;21260;34.984;32.490;2023-03-01T05:53:15;14.97;;;9.90;;
35074;SDS011;21260;34.984;32.490;2023-03-01T05:55:46;18.47;;;9.77;;
35074;SDS011;21260;34.984;32.490;2023-03-01T05:58:16;22.27;;;10.13;;
35074;SDS011;21260;34.984;32.490;2023-03-01T06:00:45;19.60;;;9.87;;
35074;SDS011;21260;34.984;32.490;2023-03-01T06:03:13;15.47;;;9.43;;
35074;SDS011;21260;34.984;32.490;2023-03-01T06:05:42;17.17;;;9.63;;
35074;SDS011;21260;34.984;32.490;2023-03-01T06:08:11;19.80;;;9.27;;
35074;SDS011;21260;34.984;32.490;2023-03-01T06:10:38;20.33;;;10.20;;
35074;SDS011;21260;34.984;32.490;2023-03-01T06:13:08;19.30;;;9.67;;
35074;SDS011;21260;34.984;32.490;2023-03-01T06:15:34;18.27;;;9.53;;
35074;SDS011;21260;34.984;32.490;2023-03-01T06:18:00;19.57;;;9.97;;
35074;SDS011;21260;34.984;32.490;2023-03-01T06:20:27;14.70;;;9.63;;
35074;SDS011;21260;34.984;32.490;2023-03-01T06:22:54;17.50;;;10.73;;
35074;SDS011;21260;34.984;32.490;2023-03-01T06:25:22;22.20;;;10.63;;
35074;SDS011;21260;34.984;32.490;2023-03-01T06:27:50;18.00;;;11.23;;
35074;SDS011;21260;34.984;32.490;2023-03-01T06:30:20;21.13;;;11.87;;
35074;SDS011;21260;34.984;32.490;2023-03-01T06:32:49;18.53;;;11.87;;
35074;SDS011;21260;34.984;32.490;2023-03-01T06:35:15;19.80;;;10.80;;
35074;SDS011;21260;34.984;32.490;2023-03-01T06:37:44;20.07;;;10.43;;
35074;SDS011;21260;34.984;32.490;2023-03-01T06:40:12;21.77;;;10.20;;
35074;SDS011;21260;34.984;32.490;2023-03-01T06:42:41;20.17;;;9.60;;
35074;SDS011;21260;34.984;32.490;2023-03-01T06:45:12;18.57;;;10.10;;
35074;SDS011;21260;34.984;32.490;2023-03-01T06:47:38;15.00;;;10.63;;
35074;SDS011;21260;34.984;32.490;2023-03-01T06:50:05;19.57;;;10.20;;
35074;SDS011;21260;34.984;32.490;2023-03-01T06:52:31;16.10;;;8.27;;
35074;SDS011;21260;34.984;32.490;2023-03-01T06:54:58;13.30;;;8.20;;
35074;SDS011;21260;34.984;32.490;2023-03-01T06:57:24;23.43;;;8.17;;
35074;SDS011;21260;34.984;32.490;2023-03-01T06:59:51;14.70;;;7.63;;
35074;SDS011;21260;34.984;32.490;2023-03-01T07:02:17;16.60;;;7.43;;
35074;SDS011;21260;34.984;32.490;2023-03-01T07:04:44;20.87;;;10.77;;
35074;SDS011;21260;34.984;32.490;2023-03-01T07:07:10;21.27;;;12.93;;
35074;SDS011;21260;34.984;32.490;2023-03-01T07:09:37;30.30;;;14.43;;
35074;SDS011;21260;34.984;32.490;2023-03-01T07:12:03;26.40;;;14.87;;
35074;SDS011;21260;34.984;32.490;2023-03-01T07:14:29;31.77;;;19.07;;
35074;SDS011;21260;34.984;32.490;2023-03-01T07:16:56;35.47;;;17.63;;
35074;SDS011;21260;34.984;32.490;2023-03-01T07:19:22;28.23;;;16.07;;
35074;SDS011;21260;34.984;32.490;2023-03-01T07:21:49;26.63;;;11.70;;
35074;SDS011;21260;34.984;32.490;2023-03-01T07:24:15;21.13;;;10.73;;
35074;SDS011;21260;34.984;32.490;2023-03-01T07:26:41;18.87;;;9.70;;
35074;SDS011;21260;34.984;32.490;2023-03-01T07:29:07;21.87;;;9.77;;
35074;SDS011;21260;34.984;32.490;2023-03-01T07:31:36;20.40;;;8.80;;
35074;SDS011;21260;34.984;32.490;2023-03-01T07:34:02;16.50;;;8.80;;
35074;SDS011;21260;34.984;32.490;2023-03-01T07:36:28;16.90;;;8.47;;
35074;SDS011;21260;34.984;32.490;2023-03-01T07:38:55;16.53;;;7.67;;
35074;SDS011;21260;34.984;32.490;2023-03-01T07:41:21;15.77;;;8.30;;
35074;SDS011;21260;34.984;32.490;2023-03-01T07:43:48;23.60;;;7.90;;
35074;SDS011;21260;34.984;32.490;2023-03-01T07:46:14;16.00;;;8.93;;
35074;SDS011;21260;34.984;32.490;2023-03-01T07:48:41;18.97;;;8.10;;
35074;SDS011;21260;34.984;32.490;2023-03-01T07:51:07;19.80;;;8.30;;
35074;SDS011;21260;34.984;32.490;2023-03-01T07:53:36;17.90;;;7.10;;
35074;SDS011;21260;34.984;32.490;2023-03-01T07:56:20;16.03;;;7.70;;
35074;SDS011;21260;34.984;32.490;2023-03-01T07:58:47;19.00;;;7.73;;
35074;SDS011;21260;34.984;32.490;2023-03-01T08:01:14;16.63;;;7.50;;
35074;SDS011;21260;34.984;32.490;2023-03-01T08:03:44;25.23;;;7.73;;
35074;SDS011;21260;34.984;32.490;2023-03-01T08:06:16;20.40;;;8.20;;
35074;SDS011;21260;34.984;32.490;2023-03-01T08:08:43;12.47;;;7.50;;
35074;SDS011;21260;34.984;32.490;2023-03-01T08:11:12;19.87;;;8.03;;
35074;SDS011;21260;34.984;32.490;2023-03-01T08:13:40;18.93;;;8.40;;
35074;SDS011;21260;34.984;32.490;2023-03-01T08:16:12;23.93;;;8.37;;
35074;SDS011;21260;34.984;32.490;2023-03-01T08:18:40;28.67;;;8.70;;
35074;SDS011;21260;34.984;32.490;2023-03-01T08:21:09;17.90;;;8.20;;
35074;SDS011;21260;34.984;32.490;2023-03-01T08:23:39;22.53;;;7.90;;
35074;SDS011;21260;34.984;32.490;2023-03-01T08:26:14;22.47;;;7.77;;
35074;SDS011;21260;34.984;32.490;2023-03-01T08:28:44;16.93;;;8.30;;
35074;SDS011;21260;34.984;32.490;2023-03-01T08:31:23;17.53;;;8.47;;
35074;SDS011;21260;34.984;32.490;2023-03-01T08:33:54;24.60;;;8.77;;
35074;SDS011;21260;34.984;32.490;2023-03-01T08:36:27;29.03;;;12.33;;
35074;SDS011;21260;34.984;32.490;2023-03-01T08:39:00;28.37;;;12.57;;
35074;SDS011;21260;34.984;32.490;2023-03-01T08:41:27;19.00;;;10.80;;
35074;SDS011;21260;34.984;32.490;2023-03-01T08:43:55;21.67;;;10.30;;
35074;SDS011;21260;34.984;32.490;2023-03-01T08:46:28;16.00;;;9.83;;
35074;SDS011;21260;34.984;32.490;2023-03-01T08:49:03;26.13;;;10.83;;
35074;SDS011;21260;34.984;32.490;2023-03-01T08:51:32;24.60;;;10.50;;
35074;SDS011;21260;34.984;32.490;2023-03-01T08:54:02;24.17;;;10.87;;
35074;SDS011;21260;34.984;32.490;2023-03-01T08:56:37;25.47;;;10.47;;
35074;SDS011;21260;34.984;32.490;2023-03-01T08:59:04;19.10;;;9.93;;
35074;SDS011;21260;34.984;32.490;2023-03-01T09:01:30;22.77;;;10.03;;
35074;SDS011;21260;34.984;32.490;2023-03-01T09:03:56;22.07;;;10.37;;
35074;SDS011;21260;34.984;32.490;2023-03-01T09:06:23;27.43;;;11.50;;
35074;SDS011;21260;34.984;32.490;2023-03-01T09:08:49;21.70;;;11.17;;
35074;SDS011;21260;34.984;32.490;2023-03-01T09:11:17;20.37;;;10.63;;
35074;SDS011;21260;34.984;32.490;2023-03-01T09:13:47;25.37;;;10.13;;
35074;SDS011;21260;34.984;32.490;2023-03-01T09:16:15;18.53;;;9.40;;
35074;SDS011;21260;34.984;32.490;2023-03-01T09:18:44;21.70;;;8.93;;
35074;SDS011;21260;34.984;32.490;2023-03-01T09:21:16;24.83;;;8.63;;
35074;SDS011;21260;34.984;32.490;2023-03-01T09:23:45;22.50;;;8.77;;
35074;SDS011;21260;34.984;32.490;2023-03-01T09:26:14;17.53;;;8.30;;
35074;SDS011;21260;34.984;32.490;2023-03-01T09:28:47;21.90;;;8.60;;
35074;SDS011;21260;34.984;32.490;2023-03-01T09:31:17;19.70;;;8.33;;
35074;SDS011;21260;34.984;32.490;2023-03-01T09:33:46;20.27;;;8.80;;
35074;SDS011;21260;34.984;32.490;2023-03-01T09:36:16;25.88;;;9.50;;
35074;SDS011;21260;34.984;32.490;2023-03-01T09:38:46;20.30;;;8.93;;
35074;SDS011;21260;34.984;32.490;2023-03-01T09:46:13;24.57;;;10.43;;
35074;SDS011;21260;34.984;32.490;2023-03-01T09:49:01;21.03;;;9.37;;
35074;SDS011;21260;34.984;32.490;2023-03-01T09:51:37;18.93;;;9.20;;
35074;SDS011;21260;34.984;32.490;2023-03-01T09:54:04;23.60;;;10.40;;
35074;SDS011;21260;34.984;32.490;2023-03-01T09:56:34;26.20;;;10.67;;
35074;SDS011;21260;34.984;32.490;2023-03-01T10:10:56;29.33;;;14.07;;
35074;SDS011;21260;34.984;32.490;2023-03-01T10:13:26;22.25;;;11.98;;
35074;SDS011;21260;34.984;32.490;2023-03-01T10:19:06;24.35;;;8.43;;
35074;SDS011;21260;34.984;32.490;2023-03-01T10:21:43;17.52;;;8.13;;
35074;SDS011;21260;34.984;32.490;2023-03-01T10:24:15;23.38;;;8.63;;
35074;SDS011;21260;34.984;32.490;2023-03-01T10:29:26;25.90;;;11.02;;
35074;SDS011;21260;34.984;32.490;2023-03-01T10:32:11;23.52;;;8.85;;
35074;SDS011;21260;34.984;32.490;2023-03-01T10:34:37;21.88;;;8.52;;
35074;SDS011;21260;34.984;32.490;2023-03-01T10:37:11;19.00;;;9.05;;
35074;SDS011;21260;34.984;32.490;2023-03-01T10:40:25;22.60;;;8.88;;
35074;SDS011;21260;34.984;32.490;2023-03-01T10:42:38;19.23;;;9.88;;
35074;SDS011;21260;34.984;32.490;2023-03-01T10:50:33;29.33;;;9.75;;
35074;SDS011;21260;34.984;32.490;2023-03-01T10:53:02;19.52;;;8.27;;
35074;SDS011;21260;34.984;32.490;2023-03-01T10:55:37;23.45;;;9.00;;
35074;SDS011;21260;34.984;32.490;2023-03-01T11:00:59;31.25;;;10.15;;
35074;SDS011;21260;34.984;32.490;2023-03-01T11:03:42;21.13;;;9.25;;
35074;SDS011;21260;34.984;32.490;2023-03-01T11:08:44;18.90;;;7.32;;
35074;SDS011;21260;34.984;32.490;2023-03-01T11:11:33;23.40;;;8.73;;
35074;SDS011;21260;34.984;32.490;2023-03-01T11:16:47;21.23;;;7.97;;
35074;SDS011;21260;34.984;32.490;2023-03-01T11:19:25;19.70;;;8.18;;
35074;SDS011;21260;34.984;32.490;2023-03-01T11:24:38;34.45;;;9.57;;
35074;SDS011;21260;34.984;32.490;2023-03-01T11:27:18;23.75;;;9.18;;
35074;SDS011;21260;34.984;32.490;2023-03-01T11:45:26;16.83;;;8.00;;
35074;SDS011;21260;34.984;32.490;2023-03-01T11:48:32;23.60;;;9.52;;
35074;SDS011;21260;34.984;32.490;2023-03-01T11:57:35;18.67;;;8.70;;
35074;SDS011;21260;34.984;32.490;2023-03-01T12:00:06;26.08;;;7.97;;
35074;SDS011;21260;34.984;32.490;2023-03-01T12:03:17;24.35;;;9.55;;
35074;SDS011;21260;34.984;32.490;2023-03-01T12:17:33;26.58;;;10.10;;
35074;SDS011;21260;34.984;32.490;2023-03-01T12:29:07;25.38;;;9.25;;
35074;SDS011;21260;34.984;32.490;2023-03-01T12:44:14;19.67;;;9.23;;
35074;SDS011;21260;34.984;32.490;2023-03-01T12:49:57;24.17;;;9.93;;
35074;SDS011;21260;34.984;32.490;2023-03-01T12:52:39;17.35;;;9.18;;
35074;SDS011;21260;34.984;32.490;2023-03-01T12:58:04;24.90;;;9.00;;
35074;SDS011;21260;34.984;32.490;2023-03-01T13:10:33;21.40;;;9.05;;
35074;SDS011;21260;34.984;32.490;2023-03-01T13:13:19;21.85;;;9.38;;
35074;SDS011;21260;34.984;32.490;2023-03-01T13:15:51;19.40;;;7.80;;
35074;SDS011;21260;34.984;32.490;2023-03-01T13:31:01;26.10;;;8.80;;
35074;SDS011;21260;34.984;32.490;2023-03-01T13:33:34;20.25;;;8.32;;
35074;SDS011;21260;34.984;32.490;2023-03-01T13:36:06;21.88;;;8.43;;
35074;SDS011;21260;34.984;32.490;2023-03-01T13:46:50;23.25;;;9.00;;
35074;SDS011;21260;34.984;32.490;2023-03-01T13:52:52;28.23;;;8.52;;
35074;SDS011;21260;34.984;32.490;2023-03-01T13:57:55;14.98;;;8.13;;
35074;SDS011;21260;34.984;32.490;2023-03-01T14:00:37;20.63;;;9.13;;
35074;SDS011;21260;34.984;32.490;2023-03-01T14:03:08;17.25;;;8.07;;
35074;SDS011;21260;34.984;32.490;2023-03-01T14:08:45;21.15;;;9.30;;
35074;SDS011;21260;34.984;32.490;2023-03-01T14:19:30;25.33;;;9.27;;
35074;SDS011;21260;34.984;32.490;2023-03-01T14:22:20;19.67;;;8.52;;
35074;SDS011;21260;34.984;32.490;2023-03-01T14:24:50;18.67;;;9.32;;
35074;SDS011;21260;34.984;32.490;2023-03-01T14:27:32;23.70;;;9.73;;
35074;SDS011;21260;34.984;32.490;2023-03-01T14:32:59;21.40;;;9.43;;
35074;SDS011;21260;34.984;32.490;2023-03-01T14:35:33;19.13;;;8.82;;
35074;SDS011;21260;34.984;32.490;2023-03-01T14:38:02;23.13;;;9.77;;
35074;SDS011;21260;34.984;32.490;2023-03-01T14:40:30;21.13;;;10.23;;
35074;SDS011;21260;34.984;32.490;2023-03-01T14:42:58;26.53;;;9.67;;
35074;SDS011;21260;34.984;32.490;2023-03-01T14:45:27;19.23;;;9.07;;
35074;SDS011;21260;34.984;32.490;2023-03-01T14:47:58;18.73;;;10.23;;
35074;SDS011;21260;34.984;32.490;2023-03-01T14:50:31;19.50;;;9.77;;
35074;SDS011;21260;34.984;32.490;2023-03-01T14:53:03;16.67;;;8.97;;
35074;SDS011;21260;34.984;32.490;2023-03-01T14:55:33;23.20;;;9.43;;
35074;SDS011;21260;34.984;32.490;2023-03-01T14:58:08;19.27;;;10.07;;
35074;SDS011;21260;34.984;32.490;2023-03-01T15:00:44;25.10;;;10.03;;
35074;SDS011;21260;34.984;32.490;2023-03-01T15:03:26;16.33;;;9.10;;
35074;SDS011;21260;34.984;32.490;2023-03-01T15:06:03;21.13;;;9.47;;
35074;SDS011;21260;34.984;32.490;2023-03-01T15:08:32;18.90;;;8.90;;
35074;SDS011;21260;34.984;32.490;2023-03-01T15:13:57;22.47;;;9.87;;
35074;SDS011;21260;34.984;32.490;2023-03-01T15:16:26;24.57;;;11.13;;
35074;SDS011;21260;34.984;32.490;2023-03-01T15:18:59;14.70;;;10.80;;
35074;SDS011;21260;34.984;32.490;2023-03-01T15:21:33;20.83;;;11.17;;
35074;SDS011;21260;34.984;32.490;2023-03-01T15:24:15;20.07;;;10.67;;
35074;SDS011;21260;34.984;32.490;2023-03-01T15:26:52;21.37;;;10.67;;
35074;SDS011;21260;34.984;32.490;2023-03-01T15:29:32;17.80;;;10.57;;
35074;SDS011;21260;34.984;32.490;2023-03-01T15:32:06;20.90;;;10.53;;
35074;SDS011;21260;34.984;32.490;2023-03-01T15:34:56;22.90;;;10.97;;
35074;SDS011;21260;34.984;32.490;2023-03-01T15:37:44;18.43;;;10.07;;
35074;SDS011;21260;34.984;32.490;2023-03-01T15:40:19;20.37;;;9.57;;
35074;SDS011;21260;34.984;32.490;2023-03-01T15:43:00;15.70;;;9.77;;
35074;SDS011;21260;34.984;32.490;2023-03-01T15:45:29;16.33;;;10.03;;
35074;SDS011;21260;34.984;32.490;2023-03-01T15:48:03;25.00;;;10.70;;
35074;SDS011;21260;34.984;32.490;2023-03-01T15:50:40;21.30;;;11.33;;
35074;SDS011;21260;34.984;32.490;2023-03-01T15:53:12;18.90;;;11.53;;
35074;SDS011;21260;34.984;32.490;2023-03-01T15:55:40;17.63;;;11.47;;
35074;SDS011;21260;34.984;32.490;2023-03-01T15:58:20;23.87;;;12.67;;
35074;SDS011;21260;34.984;32.490;2023-03-01T16:00:51;23.17;;;11.50;;
35074;SDS011;21260;34.984;32.490;2023-03-01T16:03:21;19.67;;;12.27;;
35074;SDS011;21260;34.984;32.490;2023-03-01T16:05:49;20.83;;;12.40;;
35074;SDS011;21260;34.984;32.490;2023-03-01T16:08:16;18.63;;;12.23;;
35074;SDS011;21260;34.984;32.490;2023-03-01T16:10:45;23.43;;;11.93;;
35074;SDS011;21260;34.984;32.490;2023-03-01T16:13:14;18.63;;;12.33;;
35074;SDS011;21260;34.984;32.490;2023-03-01T16:15:42;19.63;;;12.00;;
35074;SDS011;21260;34.984;32.490;2023-03-01T16:18:08;18.80;;;12.17;;
35074;SDS011;21260;34.984;32.490;2023-03-01T16:20:36;22.53;;;12.67;;
35074;SDS011;21260;34.984;32.490;2023-03-01T16:23:05;22.10;;;12.83;;
35074;SDS011;21260;34.984;32.490;2023-03-01T16:25:35;19.80;;;12.97;;
35074;SDS011;21260;34.984;32.490;2023-03-01T16:28:02;19.83;;;12.67;;
35074;SDS011;21260;34.984;32.490;2023-03-01T16:30:33;28.83;;;13.40;;
35074;SDS011;21260;34.984;32.490;2023-03-01T16:33:01;31.00;;;13.80;;
35074;SDS011;21260;34.984;32.490;2023-03-01T16:35:27;22.97;;;13.87;;
35074;SDS011;21260;34.984;32.490;2023-03-01T16:37:54;21.67;;;13.83;;
35074;SDS011;21260;34.984;32.490;2023-03-01T16:42:51;25.47;;;13.63;;
35074;SDS011;21260;34.984;32.490;2023-03-01T16:45:18;21.23;;;13.90;;
35074;SDS011;21260;34.984;32.490;2023-03-01T16:47:44;23.57;;;14.57;;
35074;SDS011;21260;34.984;32.490;2023-03-01T16:50:11;19.03;;;13.27;;
35074;SDS011;21260;34.984;32.490;2023-03-01T16:52:37;22.47;;;13.40;;
35074;SDS011;21260;34.984;32.490;2023-03-01T16:55:04;21.37;;;13.73;;
35074;SDS011;21260;34.984;32.490;2023-03-01T16:57:34;17.13;;;13.47;;
35074;SDS011;21260;34.984;32.490;2023-03-01T17:00:04;22.40;;;12.80;;
35074;SDS011;21260;34.984;32.490;2023-03-01T17:02:34;21.73;;;12.93;;
35074;SDS011;21260;34.984;32.490;2023-03-01T17:05:01;24.37;;;12.83;;
35074;SDS011;21260;34.984;32.490;2023-03-01T17:07:29;28.80;;;13.23;;
35074;SDS011;21260;34.984;32.490;2023-03-01T17:09:58;18.20;;;12.83;;
35074;SDS011;21260;34.984;32.490;2023-03-01T17:12:30;20.30;;;12.90;;
35074;SDS011;21260;34.984;32.490;2023-03-01T17:14:57;20.10;;;12.97;;
35074;SDS011;21260;34.984;32.490;2023-03-01T17:17:26;23.50;;;12.87;;
35074;SDS011;21260;34.984;32.490;2023-03-01T17:19:53;25.97;;;13.07;;
35074;SDS011;21260;34.984;32.490;2023-03-01T17:22:19;22.63;;;12.67;;
35074;SDS011;21260;34.984;32.490;2023-03-01T17:24:45;18.43;;;12.97;;
35074;SDS011;21260;34.984;32.490;2023-03-01T17:27:12;25.40;;;13.37;;
35074;SDS011;21260;34.984;32.490;2023-03-01T17:29:40;27.07;;;12.83;;
35074;SDS011;21260;34.984;32.490;2023-03-01T17:32:07;19.53;;;12.80;;